createdAt,value
2018-04-08T18:55:24.463Z,18.50
2018-04-08T18:57:52.535Z,18.50
2018-04-08T19:00:20.590Z,18.40
2018-04-08T19:02:48.672Z,18.30
2018-04-08T19:05:16.741Z,18.20
2018-04-08T19:07:44.834Z,18.20
2018-04-08T19:10:12.900Z,18.10
2018-04-08T19:12:40.969Z,18.00
2018-04-08T19:15:14.630Z,17.90
2018-04-08T19:17:48.206Z,17.90
2018-04-08T19:20:16.278Z,17.90
2018-04-08T19:22:44.335Z,17.80
2018-04-08T19:25:13.168Z,17.70
2018-04-08T19:27:42.014Z,17.70
2018-04-08T19:30:16.394Z,17.70
2018-04-08T19:32:44.478Z,17.60
2018-04-08T19:35:12.540Z,17.60
2018-04-08T19:37:40.590Z,17.50
2018-04-08T19:40:09.438Z,17.40
2018-04-08T19:42:37.508Z,17.40
2018-04-08T19:45:06.337Z,17.30
2018-04-08T19:47:35.495Z,17.30
2018-04-08T19:50:03.554Z,17.30
2018-04-08T19:52:31.626Z,17.30
2018-04-08T19:54:59.709Z,17.30
2018-04-08T19:57:27.763Z,17.30
2018-04-08T19:59:55.837Z,17.40
2018-04-08T20:02:23.939Z,17.10
2018-04-08T20:04:52.011Z,16.90
2018-04-08T20:07:20.073Z,16.80
2018-04-08T20:09:48.147Z,16.80
2018-04-08T20:12:16.215Z,16.70
2018-04-08T20:14:44.322Z,16.70
2018-04-08T20:17:12.398Z,16.60
2018-04-08T20:19:40.453Z,16.60
2018-04-08T20:22:08.578Z,16.60
2018-04-08T20:24:36.667Z,16.50
2018-04-08T20:27:04.725Z,16.40
2018-04-08T20:29:32.793Z,16.40
2018-04-08T20:32:00.860Z,16.30
2018-04-08T20:34:28.927Z,16.20
2018-04-08T20:36:56.992Z,16.10
2018-04-08T20:39:25.048Z,16.00
2018-04-08T20:41:53.139Z,15.90
2018-04-08T20:44:21.204Z,15.90
2018-04-08T20:46:49.263Z,15.90
2018-04-08T20:49:17.351Z,15.90
2018-04-08T20:51:45.385Z,15.80
2018-04-08T20:54:13.442Z,15.70
2018-04-08T20:56:41.514Z,15.70
2018-04-08T20:59:10.341Z,15.40
2018-04-08T21:01:38.408Z,15.40
2018-04-08T21:04:06.476Z,15.30
2018-04-08T21:06:34.525Z,15.30
2018-04-08T21:09:02.596Z,15.20
2018-04-08T21:11:31.434Z,15.20
2018-04-08T21:14:00.119Z,15.10
2018-04-08T21:16:28.200Z,15.10
2018-04-08T21:18:56.262Z,15.10
2018-04-08T21:21:24.325Z,15.10
2018-04-08T21:23:52.389Z,15.10
2018-04-08T21:26:20.465Z,14.90
2018-04-08T21:28:48.530Z,14.90
2018-04-08T21:31:16.604Z,15.00
2018-04-08T21:33:44.686Z,14.80
2018-04-08T21:36:12.750Z,14.70
2018-04-08T21:38:40.813Z,14.70
2018-04-08T21:41:08.887Z,14.60
2018-04-08T21:43:36.949Z,14.60
2018-04-08T21:46:05.039Z,14.70
2018-04-08T21:48:33.111Z,14.80
2018-04-08T21:51:01.181Z,14.80
2018-04-08T21:53:29.273Z,14.80
2018-04-08T21:55:57.339Z,14.70
2018-04-08T21:58:25.403Z,14.50
2018-04-08T22:00:53.467Z,14.40
2018-04-08T22:03:21.529Z,14.30
2018-04-08T22:05:49.594Z,14.30
2018-04-08T22:08:17.665Z,14.30
2018-04-08T22:10:45.733Z,14.40
2018-04-08T22:13:13.821Z,14.40
2018-04-08T22:15:41.887Z,14.30
2018-04-08T22:18:09.955Z,14.20
2018-04-08T22:20:38.019Z,14.10
2018-04-08T22:23:06.105Z,14.10
2018-04-08T22:25:34.165Z,14.00
2018-04-08T22:28:02.236Z,14.00
2018-04-08T22:30:30.303Z,13.90
2018-04-08T22:32:58.363Z,13.90
2018-04-08T22:35:26.437Z,13.90
2018-04-08T22:37:54.515Z,13.90
2018-04-08T22:40:22.575Z,13.80
2018-04-08T22:42:50.641Z,13.80
2018-04-08T22:45:18.730Z,13.70
2018-04-08T22:47:46.803Z,13.70
2018-04-08T22:50:14.869Z,13.60
2018-04-08T22:52:42.938Z,13.50
2018-04-08T22:55:11.014Z,13.50
2018-04-08T22:57:39.076Z,13.50
2018-04-08T23:00:07.174Z,13.50
2018-04-08T23:02:35.244Z,13.50
2018-04-08T23:05:03.305Z,13.40
2018-04-08T23:07:31.388Z,13.30
2018-04-08T23:09:59.454Z,13.30
2018-04-08T23:12:27.510Z,13.10
2018-04-08T23:14:55.624Z,13.00
2018-04-08T23:17:23.688Z,13.00
2018-04-08T23:19:51.757Z,13.10
2018-04-08T23:22:19.834Z,13.00
2018-04-08T23:24:47.898Z,13.10
2018-04-08T23:27:15.974Z,13.10
2018-04-08T23:29:44.034Z,13.10
2018-04-08T23:32:12.097Z,13.10
2018-04-08T23:34:40.164Z,13.10
2018-04-08T23:37:08.227Z,13.10
2018-04-08T23:39:36.290Z,13.10
2018-04-08T23:42:04.384Z,13.10
2018-04-08T23:44:33.209Z,13.10
2018-04-08T23:47:01.266Z,13.00
2018-04-08T23:49:29.362Z,13.10
2018-04-08T23:51:58.187Z,13.10
2018-04-08T23:54:26.251Z,13.10
2018-04-08T23:56:54.347Z,13.30
2018-04-08T23:59:22.395Z,13.30
